Time;durP1;ratioP1;P1;durP2;ratioP2;P2;SDS_P1;SDS_P2;PMS_P1;PMS_P2;Temp;Humidity;BMP_temperature;BMP_pressure;BME280_temperature;BME280_humidity;BME280_pressure;Samples;Min_cycle;Max_cycle;Signal;HPM_P1;HPM_P2
2022/06/22 00:00:39;;;;;;;7.78;4.97;;;;;;;27.11;58.61;97639.88;5014904;28;20217;-59
2022/06/22 00:03:09;;;;;;;5.85;5.03;;;;;;;27.04;61.35;97633.88;5015344;28;20162;-59
2022/06/22 00:05:56;;;;;;;10.27;5.00;;;;;;;26.84;63.46;97636.00;5014967;28;20178;-59
2022/06/22 00:08:28;;;;;;;5.30;4.90;;;;;;;26.77;64.38;97637.13;5014930;28;20619;-59
2022/06/22 00:10:57;;;;;;;7.57;5.50;;;;;;;26.65;64.20;97629.13;5014697;28;20225;-59
2022/06/22 00:13:26;;;;;;;6.45;4.88;;;;;;;26.61;66.24;97638.59;5015011;28;20679;-59
2022/06/22 00:16:01;;;;;;;8.02;5.53;;;;;;;26.57;66.07;97642.72;5015841;28;20595;-59
2022/06/22 00:18:32;;;;;;;6.93;5.38;;;;;;;26.44;66.63;97640.19;5014991;28;20162;-59
2022/06/22 00:21:15;;;;;;;6.07;5.45;;;;;;;26.20;68.74;97649.06;5014969;28;20189;-59
2022/06/22 00:23:43;;;;;;;6.38;5.10;;;;;;;26.12;68.93;97652.00;5015226;28;20165;-59
2022/06/22 00:26:20;;;;;;;9.50;5.20;;;;;;;26.09;69.69;97662.22;5014622;28;20687;-59
2022/06/22 00:29:00;;;;;;;6.30;5.13;;;;;;;26.07;69.88;97651.84;5014919;28;20612;-59
2022/06/22 00:31:48;;;;;;;5.95;4.97;;;;;;;25.97;70.28;97651.56;5014557;28;20661;-59
2022/06/22 00:34:16;;;;;;;9.27;5.50;;;;;;;25.80;70.96;97642.53;5014376;28;20213;-59
2022/06/22 00:37:09;;;;;;;10.55;5.50;;;;;;;25.82;71.27;97650.22;5014669;28;20233;-59
2022/06/22 00:39:41;;;;;;;7.60;5.68;;;;;;;25.71;72.17;97650.97;5003845;28;20205;-59
2022/06/22 00:42:15;;;;;;;8.45;5.93;;;;;;;25.61;72.76;97651.44;5014286;28;20185;-59
2022/06/22 00:44:53;;;;;;;6.57;5.53;;;;;;;25.60;72.70;97644.53;5014539;28;20237;-59
2022/06/22 00:47:24;;;;;;;6.38;5.55;;;;;;;25.50;73.35;97641.59;5014249;28;20189;-59
2022/06/22 00:49:54;;;;;;;6.25;5.40;;;;;;;25.51;72.78;97642.38;5014123;28;20182;-59
2022/06/22 00:52:37;;;;;;;5.38;4.88;;;;;;;25.49;72.32;97641.78;5014669;28;20269;-59
2022/06/22 00:55:05;;;;;;;7.47;5.18;;;;;;;25.52;72.93;97650.13;5014326;28;20370;-59
2022/06/22 00:57:36;;;;;;;7.03;5.40;;;;;;;25.39;73.58;97634.34;5014037;28;20235;-59
2022/06/22 01:00:19;;;;;;;5.47;4.88;;;;;;;25.42;72.40;97643.69;5014078;28;20212;-59
2022/06/22 01:02:53;;;;;;;7.72;5.03;;;;;;;25.46;72.45;97652.81;5014192;28;20635;-59
2022/06/22 01:05:24;;;;;;;14.20;5.03;;;;;;;25.45;72.87;97641.41;5013764;28;20631;-59
2022/06/22 01:08:13;;;;;;;5.88;4.88;;;;;;;25.42;72.54;97649.78;5013808;28;20309;-59
2022/06/22 01:10:49;;;;;;;5.57;4.90;;;;;;;25.50;70.56;97651.38;5014077;28;20162;-59
2022/06/22 01:13:25;;;;;;;10.05;5.18;;;;;;;25.41;72.05;97664.06;5013946;28;20198;-59
2022/06/22 01:16:02;;;;;;;8.50;5.22;;;;;;;25.41;72.38;97664.06;5013975;28;20169;-60
2022/06/22 01:19:03;;;;;;;6.00;4.90;;;;;;;25.45;71.36;97670.56;5013906;28;20650;-59
2022/06/22 01:21:35;;;;;;;7.88;5.10;;;;;;;25.39;71.05;97668.78;4933531;29;20172;-59
2022/06/22 01:24:39;;;;;;;8.25;5.07;;;;;;;25.46;69.07;97676.66;5000709;28;20194;-59
2022/06/22 01:27:31;;;;;;;7.75;4.97;;;;;;;25.46;70.21;97674.00;5012936;28;20201;-59
2022/06/22 01:30:00;;;;;;;6.65;5.32;;;;;;;25.58;69.69;97677.56;5013599;28;20166;-59
2022/06/22 01:32:35;;;;;;;8.93;5.50;;;;;;;25.46;70.40;97681.97;5012118;28;20179;-59
2022/06/22 01:35:15;;;;;;;9.10;5.28;;;;;;;25.46;70.37;97682.78;5013617;28;20253;-59
2022/06/22 01:37:44;;;;;;;6.38;5.28;;;;;;;25.51;70.20;97682.94;5013602;28;20194;-59
2022/06/22 01:40:13;;;;;;;6.15;5.55;;;;;;;25.49;70.54;97687.63;5013523;28;20189;-59
2022/06/22 01:42:50;;;;;;;8.93;5.35;;;;;;;25.55;69.63;97686.75;5013385;28;20666;-59
2022/06/22 01:45:24;;;;;;;6.75;5.53;;;;;;;25.66;66.45;97687.91;5013188;28;20163;-59
2022/06/22 01:48:03;;;;;;;10.43;5.65;;;;;;;25.82;65.17;97693.47;5013118;28;20651;-59
2022/06/22 01:50:46;;;;;;;5.97;5.25;;;;;;;25.93;64.46;97690.13;5011891;28;20268;-59
2022/06/22 01:53:25;;;;;;;5.82;5.10;;;;;;;26.10;63.26;97698.31;5013214;28;20198;-59
2022/06/22 01:56:02;;;;;;;13.05;5.00;;;;;;;26.21;62.67;97693.13;5013313;28;20246;-59
2022/06/22 01:58:34;;;;;;;9.73;5.72;;;;;;;26.23;62.67;97712.25;5013226;28;20182;-59
2022/06/22 02:01:16;;;;;;;8.60;5.03;;;;;;;26.34;62.31;97703.56;5012756;28;20228;-59
2022/06/22 02:03:52;;;;;;;10.75;5.38;;;;;;;26.39;61.74;97700.25;5011608;28;20611;-59
2022/06/22 02:09:21;;;;;;;10.52;5.63;;;;;;;26.36;64.47;97693.53;5013075;28;20166;-59
2022/06/22 02:14:44;;;;;;;6.97;4.90;;;;;;;26.22;65.54;97707.16;5012961;28;20205;-59
2022/06/22 02:17:14;;;;;;;7.15;5.40;;;;;;;26.25;63.11;97704.88;5012674;28;20182;-59
2022/06/22 02:19:41;;;;;;;10.85;6.07;;;;;;;26.28;63.11;97703.63;5012886;28;20182;-59
2022/06/22 02:22:11;;;;;;;7.15;5.97;;;;;;;26.21;64.34;97703.72;5012611;28;20182;-59
2022/06/22 02:24:42;;;;;;;8.95;4.85;;;;;;;26.24;63.97;97705.13;5013138;28;20162;-59
2022/06/22 02:27:12;;;;;;;8.70;5.90;;;;;;;26.16;65.17;97690.31;5012864;28;20628;-59
2022/06/22 02:29:45;;;;;;;9.82;5.18;;;;;;;26.13;66.71;97689.94;5012742;28;20209;-59
2022/06/22 02:32:17;;;;;;;8.70;5.88;;;;;;;26.17;64.36;97691.94;5012731;28;20167;-59
2022/06/22 02:34:47;;;;;;;6.28;5.50;;;;;;;26.11;65.80;97689.34;5011752;28;20198;-60
2022/06/22 02:37:13;;;;;;;6.40;5.80;;;;;;;26.19;65.34;97689.06;5012678;28;20179;-59
2022/06/22 02:39:46;;;;;;;10.18;6.18;;;;;;;26.21;64.15;97693.13;5012616;28;20178;-59
2022/06/22 02:44:58;;;;;;;11.38;6.13;;;;;;;25.93;69.06;97695.44;5013141;28;20580;-59
2022/06/22 02:47:42;;;;;;;10.90;6.22;;;;;;;25.87;68.83;97701.59;5012507;28;20182;-59
2022/06/22 02:50:31;;;;;;;10.05;6.32;;;;;;;25.91;66.62;97697.50;5012846;28;20182;-59
2022/06/22 02:53:01;;;;;;;8.57;6.70;;;;;;;25.85;66.82;97693.06;5012235;28;20670;-59
2022/06/22 02:55:34;;;;;;;11.55;6.00;;;;;;;25.91;68.16;97697.50;5012483;28;20171;-59
2022/06/22 02:58:02;;;;;;;6.97;5.97;;;;;;;25.87;69.42;97685.69;5012110;28;20549;-59
2022/06/22 03:00:40;;;;;;;8.38;6.97;;;;;;;25.84;66.16;97678.16;5012052;28;20260;-59
2022/06/22 03:03:09;;;;;;;7.13;6.45;;;;;;;26.00;65.67;97687.44;5012720;28;20169;-59
2022/06/22 03:05:38;;;;;;;8.30;6.40;;;;;;;26.10;65.29;97698.31;5012087;28;20178;-59
2022/06/22 03:08:04;;;;;;;8.25;6.97;;;;;;;26.10;66.61;97680.59;5012088;28;20206;-59
2022/06/22 03:10:36;;;;;;;8.98;6.72;;;;;;;26.09;67.16;97684.28;5012551;28;20185;-59
2022/06/22 03:13:02;;;;;;;8.40;6.80;;;;;;;26.08;68.79;97676.53;5012500;28;20222;-59
2022/06/22 03:15:32;;;;;;;8.93;7.15;;;;;;;26.13;64.79;97679.34;5010839;28;20612;-59
2022/06/22 03:17:59;;;;;;;10.05;7.32;;;;;;;26.14;65.42;97680.94;5011959;28;20183;-59
2022/06/22 03:20:31;;;;;;;10.93;6.88;;;;;;;26.18;67.36;97672.31;5012195;28;20265;-59
2022/06/22 03:23:17;;;;;;;9.35;7.25;;;;;;;26.12;69.74;97683.81;5012243;28;20173;-59
2022/06/22 03:25:52;;;;;;;8.70;6.68;;;;;;;26.01;68.08;97665.97;5012231;28;20617;-59
2022/06/22 03:28:27;;;;;;;7.25;6.65;;;;;;;26.22;65.47;97692.06;5011985;28;20252;-59
2022/06/22 03:31:00;;;;;;;9.13;6.72;;;;;;;26.21;65.88;97690.47;5012147;28;20216;-59
2022/06/22 03:33:44;;;;;;;9.57;7.40;;;;;;;26.30;64.22;97688.34;5012090;28;20659;-59
2022/06/22 03:36:19;;;;;;;8.35;7.55;;;;;;;26.28;68.17;97688.53;5012094;28;20555;-59
2022/06/22 03:38:50;;;;;;;10.80;7.85;;;;;;;26.41;64.90;97690.25;5012655;28;20634;-59
2022/06/22 03:41:20;;;;;;;7.57;6.78;;;;;;;26.50;63.84;97686.25;5010548;28;20682;-59
2022/06/22 03:43:57;;;;;;;8.77;7.20;;;;;;;26.61;63.38;97696.16;5012250;28;20163;-59
2022/06/22 03:46:22;;;;;;;7.30;6.65;;;;;;;26.62;65.09;97685.31;5015238;28;20162;-59
2022/06/22 03:49:01;;;;;;;11.05;7.75;;;;;;;26.56;70.21;97691.53;5015309;28;20257;-59
2022/06/22 03:51:32;;;;;;;9.82;6.70;;;;;;;26.73;64.66;97692.53;5015281;28;20174;-59
2022/06/22 03:54:34;;;;;;;9.27;7.60;;;;;;;26.76;65.01;97685.97;5015393;28;20194;-59
2022/06/22 03:57:03;;;;;;;10.05;8.02;;;;;;;26.84;64.60;97689.13;5015047;28;20283;-59
2022/06/22 03:59:31;;;;;;;9.02;8.13;;;;;;;26.84;64.82;97691.78;5015764;28;20621;-58
2022/06/22 04:01:57;;;;;;;8.48;7.75;;;;;;;26.98;63.97;97685.25;5014974;28;20574;-59
2022/06/22 04:04:24;;;;;;;9.10;7.30;;;;;;;26.89;64.91;97670.63;5015024;28;20222;-59
2022/06/22 04:06:53;;;;;;;8.93;7.95;;;;;;;26.97;66.95;97686.28;5014923;28;20184;-59
2022/06/22 04:09:23;;;;;;;8.10;7.35;;;;;;;27.02;65.18;97678.44;5015190;28;20619;-59
2022/06/22 04:12:09;;;;;;;10.07;7.90;;;;;;;27.03;65.45;97682.72;5014932;28;20634;-59
2022/06/22 04:14:51;;;;;;;10.20;7.40;;;;;;;27.07;66.89;97683.91;5015415;28;20198;-59
2022/06/22 04:17:31;;;;;;;11.98;7.93;;;;;;;27.13;65.46;97683.00;5015164;28;20245;-59
2022/06/22 04:20:14;;;;;;;8.93;8.02;;;;;;;27.29;63.09;97682.34;5014788;28;20177;-60
2022/06/22 04:22:43;;;;;;;10.35;8.23;;;;;;;27.31;63.48;97693.56;5014995;28;20217;-59
2022/06/22 04:25:17;;;;;;;8.98;7.70;;;;;;;27.35;63.83;97692.06;5014666;28;20321;-59
2022/06/22 04:27:48;;;;;;;8.65;7.47;;;;;;;27.38;63.87;97688.16;5014873;28;20541;-59
2022/06/22 04:30:21;;;;;;;11.48;8.18;;;;;;;27.44;63.21;97673.94;5014786;28;20167;-59
2022/06/22 04:32:58;;;;;;;10.27;7.30;;;;;;;27.47;64.77;97676.94;5014743;28;20185;-59
2022/06/22 04:35:35;;;;;;;8.43;7.28;;;;;;;27.51;64.21;97664.84;5014731;28;20556;-59
2022/06/22 04:38:11;;;;;;;8.70;7.47;;;;;;;27.53;63.68;97683.22;5015003;28;20232;-59
2022/06/22 04:41:04;;;;;;;8.05;7.10;;;;;;;27.61;62.91;97691.66;5014691;28;20174;-59
2022/06/22 04:43:32;;;;;;;9.93;8.27;;;;;;;27.62;62.52;97697.78;5014520;28;20189;-59
2022/06/22 04:45:58;;;;;;;13.52;7.55;;;;;;;27.59;62.69;97704.34;5014770;28;20706;-59
2022/06/22 04:48:38;;;;;;;15.43;7.50;;;;;;;27.63;62.11;97694.88;5014461;28;20179;-59
2022/06/22 04:51:05;;;;;;;9.60;6.82;;;;;;;27.73;62.36;97711.09;5014160;28;20646;-59
2022/06/22 04:53:35;;;;;;;11.20;7.53;;;;;;;27.83;61.48;97707.88;5014202;28;20202;-59
2022/06/22 04:56:07;;;;;;;7.65;6.78;;;;;;;27.88;59.68;97703.47;5013375;28;20670;-59
2022/06/22 04:58:45;;;;;;;7.50;6.72;;;;;;;27.92;60.78;97702.00;5012566;28;20186;-59
2022/06/22 05:01:19;;;;;;;7.63;6.93;;;;;;;27.80;60.99;97679.91;5012542;28;20221;-59
2022/06/22 05:03:45;;;;;;;8.38;7.32;;;;;;;28.00;62.06;97699.00;5014529;28;20173;-59
2022/06/22 05:06:18;;;;;;;13.98;7.57;;;;;;;27.89;63.19;97675.88;5013834;28;20208;-59
2022/06/22 05:09:14;;;;;;;7.50;6.63;;;;;;;28.18;61.08;97708.69;5014111;28;20171;-59
2022/06/22 05:11:46;;;;;;;11.07;7.05;;;;;;;28.21;61.66;97714.34;5014074;28;20190;-60
2022/06/22 05:14:18;;;;;;;13.02;8.00;;;;;;;28.32;61.82;97710.88;5013656;28;20199;-59
2022/06/22 05:16:50;;;;;;;14.40;7.03;;;;;;;28.33;60.91;97704.50;5012431;28;20190;-59
2022/06/22 05:19:17;;;;;;;8.93;7.72;;;;;;;28.46;60.81;97706.94;5013572;28;20171;-59
2022/06/22 05:21:45;;;;;;;9.88;7.32;;;;;;;28.51;58.28;97709.72;5013805;28;20182;-59
2022/06/22 05:24:20;;;;;;;8.35;7.55;;;;;;;28.60;58.53;97724.28;5013471;28;20320;-59
2022/06/22 05:26:47;;;;;;;12.30;7.47;;;;;;;28.61;58.00;97717.91;5013534;28;20174;-59
2022/06/22 05:29:20;;;;;;;9.65;7.20;;;;;;;28.66;57.32;97718.03;5013734;28;20193;-59
2022/06/22 05:31:51;;;;;;;11.48;7.65;;;;;;;28.69;57.21;97728.19;5013688;28;20167;-59
2022/06/22 05:34:24;;;;;;;8.68;7.40;;;;;;;28.73;58.21;97734.66;5013261;28;20276;-59
2022/06/22 05:36:57;;;;;;;8.18;7.20;;;;;;;28.72;58.36;97726.91;5013511;28;20185;-59
2022/06/22 05:39:23;;;;;;;8.25;6.85;;;;;;;28.82;57.00;97735.09;5013432;28;20198;-59
2022/06/22 05:41:49;;;;;;;8.48;7.55;;;;;;;28.84;56.80;97754.31;5013191;28;20228;-59
2022/06/22 05:44:17;;;;;;;9.98;7.63;;;;;;;28.89;57.56;97746.44;5013477;28;20229;-59
2022/06/22 05:46:55;;;;;;;8.98;7.50;;;;;;;29.00;56.62;97743.78;5013061;28;20182;-59
2022/06/22 05:49:28;;;;;;;9.82;8.50;;;;;;;29.09;55.82;97745.00;5013246;28;20268;-59
2022/06/22 05:51:54;;;;;;;10.57;8.40;;;;;;;29.12;56.89;97760.53;5013560;28;20167;-59
2022/06/22 05:54:43;;;;;;;12.63;8.98;;;;;;;28.97;56.21;97744.22;5013123;28;20249;-59
2022/06/22 05:57:21;;;;;;;12.50;9.35;;;;;;;28.94;57.55;97742.03;5012469;28;20198;-59
2022/06/22 05:59:55;;;;;;;11.05;9.68;;;;;;;28.91;58.38;97758.47;5012824;28;20186;-59
2022/06/22 06:02:37;;;;;;;11.85;9.70;;;;;;;28.93;57.19;97751.03;5012899;28;20213;-59
2022/06/22 06:05:15;;;;;;;10.50;9.30;;;;;;;28.99;57.56;97760.81;5013176;28;20197;-59
2022/06/22 06:07:48;;;;;;;14.50;9.75;;;;;;;29.04;57.04;97752.88;5012735;28;20587;-59
2022/06/22 06:10:17;;;;;;;10.88;9.52;;;;;;;29.13;56.71;97746.16;5012962;28;20611;-59
2022/06/22 06:12:55;;;;;;;11.73;10.10;;;;;;;29.10;56.23;97741.28;5012587;28;20662;-59
2022/06/22 06:15:21;;;;;;;12.75;10.18;;;;;;;29.16;57.04;97740.31;5012699;28;20221;-59
2022/06/22 06:17:50;;;;;;;11.80;10.18;;;;;;;29.11;56.56;97742.09;5012597;28;20174;-59
2022/06/22 06:20:23;;;;;;;17.20;10.77;;;;;;;29.06;57.25;97740.16;5012577;28;20181;-59
2022/06/22 06:22:53;;;;;;;15.13;10.70;;;;;;;29.07;56.91;97740.94;5012869;28;20245;-59
2022/06/22 06:28:26;;;;;;;17.58;10.77;;;;;;;28.91;58.39;97747.03;5012762;28;20232;-59
2022/06/22 06:31:01;;;;;;;12.52;11.18;;;;;;;28.74;59.08;97759.47;5012673;28;20166;-59
2022/06/22 06:33:36;;;;;;;17.77;11.65;;;;;;;28.72;59.10;97748.22;5012388;28;20201;-59
2022/06/22 06:36:06;;;;;;;13.73;11.95;;;;;;;28.65;58.70;97752.88;5011152;28;20253;-59
2022/06/22 06:38:47;;;;;;;15.55;12.30;;;;;;;28.51;59.45;97751.50;5012602;28;20175;-59
2022/06/22 06:41:24;;;;;;;14.77;12.13;;;;;;;28.44;60.79;97748.97;5012947;28;20612;-59
2022/06/22 06:44:10;;;;;;;14.88;13.05;;;;;;;28.44;61.34;97751.63;5012372;28;20182;-59
2022/06/22 06:46:40;;;;;;;18.23;12.32;;;;;;;28.54;60.68;97741.19;5012354;28;20186;-59
2022/06/22 06:49:28;;;;;;;13.98;12.55;;;;;;;28.59;60.16;97741.31;5012280;28;20253;-59
2022/06/22 06:51:59;;;;;;;16.10;12.68;;;;;;;28.63;60.00;97742.44;5012545;28;20540;-59
2022/06/22 06:54:40;;;;;;;17.83;12.35;;;;;;;28.65;59.47;97745.69;5012334;28;20255;-59
2022/06/22 06:57:11;;;;;;;14.15;12.65;;;;;;;28.68;59.90;97744.41;5011262;28;20245;-59
2022/06/22 06:59:39;;;;;;;16.42;12.85;;;;;;;28.71;60.69;97736.75;5012226;28;20209;-59
2022/06/22 07:02:17;;;;;;;14.60;13.05;;;;;;;28.68;59.97;97741.75;5012076;28;20190;-59
2022/06/22 07:04:43;;;;;;;16.25;12.57;;;;;;;28.67;60.41;97727.63;5012435;28;20159;-59
2022/06/22 07:07:18;;;;;;;14.32;12.70;;;;;;;28.76;59.51;97730.72;5012365;28;20225;-59
2022/06/22 07:09:47;;;;;;;16.58;12.93;;;;;;;28.81;59.22;97734.28;5012626;28;20169;-59
2022/06/22 07:12:26;;;;;;;14.57;12.60;;;;;;;28.88;59.69;97724.31;5012355;28;20186;-59
2022/06/22 07:14:52;;;;;;;14.68;13.23;;;;;;;28.91;60.06;97731.81;5012239;28;20333;-59
2022/06/22 07:17:20;;;;;;;16.48;12.55;;;;;;;28.99;60.25;97728.00;5012272;28;20174;-59
2022/06/22 07:19:54;;;;;;;15.13;13.43;;;;;;;29.08;60.01;97732.72;5013350;28;20167;-59
2022/06/22 07:22:40;;;;;;;15.43;12.82;;;;;;;29.12;59.44;97739.19;5016274;28;20257;-59
2022/06/22 07:25:24;;;;;;;18.55;13.50;;;;;;;29.21;60.09;97727.09;5016150;28;20159;-59
2022/06/22 07:27:49;;;;;;;16.73;13.45;;;;;;;29.31;58.67;97737.94;5015761;28;20343;-59
2022/06/22 07:30:18;;;;;;;15.82;13.45;;;;;;;29.41;58.27;97748.81;5015465;28;20578;-59
2022/06/22 07:32:48;;;;;;;18.15;12.93;;;;;;;29.49;58.09;97735.06;5015909;28;20580;-59
2022/06/22 07:35:24;;;;;;;19.15;12.88;;;;;;;29.57;58.29;97745.34;5015447;28;20167;-59
2022/06/22 07:38:13;;;;;;;18.10;12.73;;;;;;;29.64;57.48;97738.03;5015658;28;20170;-59
2022/06/22 07:41:18;;;;;;;13.98;12.68;;;;;;;29.70;57.39;97744.25;4979027;28;20190;-59
2022/06/22 07:43:24;;;;;;;13.63;12.32;;;;;;;29.81;56.71;97754.84;5015315;28;20197;-59
2022/06/22 07:45:51;;;;;;;16.17;11.98;;;;;;;29.90;55.77;97750.72;5015876;28;20170;-59
2022/06/22 07:48:19;;;;;;;13.38;11.65;;;;;;;29.90;55.32;97763.28;5015404;28;20179;-59
2022/06/22 07:50:53;;;;;;;16.35;11.57;;;;;;;29.87;55.88;97753.88;5015525;28;20191;-59
2022/06/22 07:53:51;;;;;;;14.57;12.02;;;;;;;29.90;54.86;97756.06;5015258;28;20260;-59
2022/06/22 07:56:25;;;;;;;16.60;12.07;;;;;;;29.98;53.94;97761.00;5015797;28;20169;-59
2022/06/22 07:59:15;;;;;;;16.20;12.88;;;;;;;30.04;55.02;97765.38;5015705;28;20262;-59
2022/06/22 08:01:43;;;;;;;12.27;11.10;;;;;;;30.05;52.99;97766.97;5014984;28;20305;-59
2022/06/22 08:04:33;;;;;;;15.05;11.77;;;;;;;30.07;54.12;97756.84;5015138;28;20182;-59
2022/06/22 08:07:06;;;;;;;12.70;11.07;;;;;;;30.10;53.67;97756.41;5015823;28;20206;-59
2022/06/22 08:10:07;;;;;;;11.82;10.52;;;;;;;30.15;52.81;97759.13;5014993;28;20170;-59
2022/06/22 08:12:53;;;;;;;14.27;10.88;;;;;;;30.14;52.74;97762.84;5015227;28;20187;-59
2022/06/22 08:15:22;;;;;;;13.00;11.18;;;;;;;30.16;53.00;97751.94;5015190;28;20219;-59
2022/06/22 08:17:53;;;;;;;16.00;11.07;;;;;;;30.21;53.40;97766.16;5015128;28;20198;-59
2022/06/22 08:20:41;;;;;;;12.90;10.75;;;;;;;30.29;52.50;97757.75;5015356;28;20225;-59
2022/06/22 08:23:14;;;;;;;13.13;10.27;;;;;;;30.34;52.59;97760.50;5015043;28;20163;-59
2022/06/22 08:25:46;;;;;;;11.68;10.48;;;;;;;30.38;52.45;97766.16;5014714;28;20167;-59
2022/06/22 08:28:18;;;;;;;11.45;9.93;;;;;;;30.43;50.84;97774.25;5015240;28;20608;-59
2022/06/22 08:30:46;;;;;;;12.75;10.43;;;;;;;30.43;51.06;97767.03;5014773;28;20180;-59
2022/06/22 08:33:16;;;;;;;14.20;10.15;;;;;;;30.50;51.93;97770.31;5014734;28;20206;-59
2022/06/22 08:36:10;;;;;;;14.93;10.00;;;;;;;30.66;51.37;97774.06;5014466;28;20670;-59
2022/06/22 08:38:36;;;;;;;11.43;10.07;;;;;;;30.68;50.58;97772.75;5012076;28;20198;-59
2022/06/22 08:41:15;;;;;;;14.18;9.43;;;;;;;30.63;51.59;97775.34;5014331;28;20170;-59
2022/06/22 08:43:53;;;;;;;11.50;10.25;;;;;;;30.64;52.96;97774.31;5013108;28;20639;-59
2022/06/22 08:46:34;;;;;;;11.82;10.00;;;;;;;30.68;52.80;97767.41;5014358;28;20173;-59
2022/06/22 08:49:18;;;;;;;10.82;9.80;;;;;;;30.70;51.77;97770.63;5014489;28;20209;-59
2022/06/22 08:52:20;;;;;;;11.55;10.40;;;;;;;30.74;53.51;97771.78;5014489;28;20178;-59
2022/06/22 08:55:16;;;;;;;11.98;10.85;;;;;;;30.87;52.64;97771.38;5013990;28;20201;-59
2022/06/22 08:58:23;;;;;;;13.20;9.63;;;;;;;31.06;51.21;97774.56;5014662;28;20163;-59
2022/06/22 09:01:12;;;;;;;13.75;10.25;;;;;;;31.17;51.07;97770.91;5013982;28;20206;-59
2022/06/22 09:03:53;;;;;;;11.75;10.48;;;;;;;31.26;50.89;97769.47;5014534;28;20155;-59
2022/06/22 09:06:39;;;;;;;11.70;9.98;;;;;;;31.19;50.49;97764.28;5013860;28;20166;-59
2022/06/22 09:09:20;;;;;;;13.15;9.70;;;;;;;31.22;50.41;97763.81;5014171;28;20189;-59
2022/06/22 09:12:06;;;;;;;12.55;9.60;;;;;;;31.16;49.37;97771.97;5014337;28;20163;-59
2022/06/22 09:14:47;;;;;;;13.85;10.43;;;;;;;31.02;50.92;97768.88;5013928;28;20562;-59
2022/06/22 09:17:26;;;;;;;11.52;10.00;;;;;;;30.97;51.70;97758.16;5014248;28;20225;-60
2022/06/22 09:20:06;;;;;;;12.40;10.18;;;;;;;30.89;51.65;97763.94;5013715;28;20169;-59
2022/06/22 09:22:47;;;;;;;11.85;9.60;;;;;;;30.77;50.75;97755.22;5013793;28;20177;-59
2022/06/22 09:25:40;;;;;;;12.27;10.05;;;;;;;30.74;50.87;97755.75;5012308;28;20162;-59
2022/06/22 09:28:23;;;;;;;10.85;9.93;;;;;;;30.88;50.63;97751.63;5014126;28;20163;-59
2022/06/22 09:31:25;;;;;;;12.38;9.70;;;;;;;30.98;52.29;97738.38;5013857;28;20628;-59
2022/06/22 09:34:32;;;;;;;11.63;10.43;;;;;;;31.18;52.11;97754.66;5013310;28;20200;-59
2022/06/22 09:37:16;;;;;;;12.77;10.25;;;;;;;31.32;49.20;97747.88;4950374;28;20197;-59
2022/06/22 09:40:13;;;;;;;11.05;9.73;;;;;;;31.48;48.68;97735.47;5013547;28;20174;-59
2022/06/22 09:43:16;;;;;;;12.80;10.75;;;;;;;31.52;49.87;97723.16;5005653;28;20193;-59
2022/06/22 09:45:51;;;;;;;12.98;9.63;;;;;;;31.56;48.20;97730.47;5013475;28;20178;-59
2022/06/22 09:48:16;;;;;;;12.07;9.88;;;;;;;31.56;48.95;97727.78;5013457;28;20177;-59
2022/06/22 09:50:59;;;;;;;11.70;10.55;;;;;;;31.47;49.53;97729.28;5013445;28;20174;-60
2022/06/22 09:53:37;;;;;;;12.95;10.38;;;;;;;31.49;51.05;97731.72;5013603;28;20660;-59
2022/06/22 09:56:28;;;;;;;12.98;10.00;;;;;;;31.47;50.52;97726.63;5013071;28;20194;-59
2022/06/22 09:59:32;;;;;;;12.25;10.23;;;;;;;31.54;48.47;97715.72;5013213;28;20564;-59
2022/06/22 10:02:16;;;;;;;10.93;9.32;;;;;;;31.59;48.06;97715.75;5013183;28;20693;-59
2022/06/22 10:05:00;;;;;;;12.95;10.18;;;;;;;31.55;49.55;97711.97;5013172;28;20244;-59
2022/06/22 10:07:25;;;;;;;17.30;9.65;;;;;;;31.56;49.97;97725.09;5012956;28;20245;-59
2022/06/22 10:09:53;;;;;;;16.67;10.73;;;;;;;31.59;50.74;97705.84;5012846;28;20252;-59
2022/06/22 10:12:43;;;;;;;14.27;10.30;;;;;;;31.64;51.41;97705.91;5012715;28;20186;-59
2022/06/22 10:15:12;;;;;;;11.80;9.95;;;;;;;31.67;50.15;97712.59;5011345;28;20676;-59
2022/06/22 10:18:09;;;;;;;11.80;10.32;;;;;;;31.65;51.32;97696.81;5012968;28;20171;-59
2022/06/22 10:21:01;;;;;;;11.23;10.05;;;;;;;31.65;50.73;97704.84;5012910;28;20158;-59
2022/06/22 10:23:35;;;;;;;12.15;9.40;;;;;;;31.70;50.43;97707.56;5012922;28;20163;-59
2022/06/22 10:26:03;;;;;;;15.00;9.23;;;;;;;31.75;50.45;97707.63;5012822;28;20224;-59
2022/06/22 10:28:52;;;;;;;13.60;9.52;;;;;;;31.77;50.76;97708.16;5012775;28;20179;-59
2022/06/22 10:31:44;;;;;;;13.25;9.77;;;;;;;31.83;49.58;97711.69;5011234;28;20248;-60
2022/06/22 10:34:25;;;;;;;13.45;9.93;;;;;;;31.92;47.88;97704.78;5012355;28;20233;-59
2022/06/22 10:37:02;;;;;;;11.75;10.18;;;;;;;32.03;48.39;97712.66;5012238;28;20705;-59
2022/06/22 10:39:55;;;;;;;16.02;10.07;;;;;;;32.20;46.87;97709.81;5011181;28;20182;-59
2022/06/22 10:45:49;;;;;;;13.98;9.27;;;;;;;32.45;47.24;97708.09;5012595;28;20166;-59
2022/06/22 10:48:52;;;;;;;14.02;10.25;;;;;;;32.45;45.61;97708.09;5012288;28;20170;-60
2022/06/22 10:51:30;;;;;;;12.05;9.75;;;;;;;32.43;46.20;97710.25;5012191;28;20170;-59
2022/06/22 10:54:13;;;;;;;14.75;9.57;;;;;;;32.37;47.26;97715.81;5012504;28;20213;-59
2022/06/22 10:57:07;;;;;;;14.40;9.77;;;;;;;32.36;47.66;97728.41;5016573;28;20242;-59
2022/06/22 10:59:51;;;;;;;11.18;9.80;;;;;;;32.34;47.59;97729.75;4999009;28;20202;-59
2022/06/22 11:02:44;;;;;;;12.77;10.82;;;;;;;32.19;47.98;97727.75;5016426;28;20198;-59
2022/06/22 11:05:28;;;;;;;15.20;9.65;;;;;;;32.06;48.61;97730.88;5016719;28;20175;-60
2022/06/22 11:08:18;;;;;;;13.18;10.18;;;;;;;31.81;49.21;97719.97;5016199;28;20162;-59
2022/06/22 11:10:43;;;;;;;11.20;10.00;;;;;;;31.69;50.72;97722.00;5016001;28;20201;-59
2022/06/22 11:13:11;;;;;;;11.25;10.02;;;;;;;31.63;53.12;97712.31;5015972;28;20606;-59
2022/06/22 11:16:07;;;;;;;16.33;10.63;;;;;;;31.48;53.62;97714.84;5015940;28;20197;-59
2022/06/22 11:19:03;;;;;;;18.05;9.90;;;;;;;31.42;53.81;97717.75;5016162;28;20150;-60
2022/06/22 11:21:40;;;;;;;17.02;10.15;;;;;;;31.38;53.09;97724.66;5015813;28;20212;-59
2022/06/22 11:24:38;;;;;;;14.45;10.73;;;;;;;31.33;53.63;97720.06;5016087;28;20542;-59
2022/06/22 11:33:11;;;;;;;11.55;10.43;;;;;;;31.23;54.51;97722.63;5016183;28;20197;-59
2022/06/22 11:35:52;;;;;;;12.52;10.50;;;;;;;31.23;54.45;97733.34;5016158;28;20234;-59
2022/06/22 11:38:29;;;;;;;11.77;10.13;;;;;;;31.15;56.60;97735.63;5015904;28;20574;-59
2022/06/22 11:41:32;;;;;;;13.52;10.65;;;;;;;31.01;56.13;97732.53;5016099;28;20634;-59
2022/06/22 11:44:06;;;;;;;12.70;10.40;;;;;;;30.98;56.50;97735.72;5015407;28;20669;-59
2022/06/22 11:46:41;;;;;;;12.00;10.73;;;;;;;30.88;56.60;97732.09;5015704;28;20173;-59
2022/06/22 11:49:55;;;;;;;11.80;10.70;;;;;;;30.77;57.00;97728.50;5015400;28;20178;-59
2022/06/22 11:52:20;;;;;;;12.70;11.40;;;;;;;30.78;58.34;97732.00;5015631;28;20548;-59
2022/06/22 11:54:56;;;;;;;14.70;10.52;;;;;;;30.72;58.24;97736.47;5015202;28;20281;-59
2022/06/22 11:57:39;;;;;;;12.48;11.05;;;;;;;30.71;58.82;97742.06;5015528;28;20169;-59
2022/06/22 12:00:29;;;;;;;16.02;10.93;;;;;;;30.67;57.91;97731.03;5015288;28;20190;-59
2022/06/22 12:02:57;;;;;;;15.55;10.98;;;;;;;30.77;56.08;97749.88;5015717;28;20186;-59
2022/06/22 12:05:44;;;;;;;12.32;9.27;;;;;;;30.79;55.27;97750.44;5014668;28;20167;-59
2022/06/22 12:08:43;;;;;;;14.55;9.40;;;;;;;30.75;56.16;97745.84;5015001;28;20185;-59
2022/06/22 12:11:32;;;;;;;13.73;9.35;;;;;;;30.70;53.81;97740.44;5014972;28;20198;-59
2022/06/22 12:17:18;;;;;;;12.73;9.13;;;;;;;30.45;56.85;97714.19;5015175;28;20165;-59
2022/06/22 12:20:07;;;;;;;12.75;7.03;;;;;;;30.30;50.18;97700.63;5014914;28;20249;-59
2022/06/22 12:22:53;;;;;;;11.07;7.32;;;;;;;30.60;55.12;97698.34;5015109;28;20159;-59
2022/06/22 12:25:50;;;;;;;9.65;6.32;;;;;;;30.98;47.96;97703.66;5014735;28;20689;-60
2022/06/22 12:28:36;;;;;;;11.50;6.53;;;;;;;31.10;44.38;97700.81;4998978;28;20182;-59
2022/06/22 12:31:15;;;;;;;6.72;5.53;;;;;;;31.25;44.32;97706.34;5014789;28;20617;-59
2022/06/22 12:33:50;;;;;;;9.07;5.93;;;;;;;31.39;44.45;97720.91;5014752;28;20256;-59
2022/06/22 12:36:25;;;;;;;11.90;5.93;;;;;;;31.63;43.48;97727.56;5014806;28;20541;-59